sensor_id;sensor_type;location;lat;lon;timestamp;temperature;humidity
68556;HTU21D;55544;51.032;5.866;2023-09-30T00:00:57;15.89;80.88
68556;HTU21D;55544;51.032;5.866;2023-09-30T00:03:23;15.85;81.37
68556;HTU21D;55544;51.032;5.866;2023-09-30T00:05:49;15.88;81.62
68556;HTU21D;55544;51.032;5.866;2023-09-30T00:08:15;15.88;81.52
68556;HTU21D;55544;51.032;5.866;2023-09-30T00:10:40;15.89;81.23
68556;HTU21D;55544;51.032;5.866;2023-09-30T00:13:06;15.90;81.08
68556;HTU21D;55544;51.032;5.866;2023-09-30T00:15:35;15.91;80.81
68556;HTU21D;55544;51.032;5.866;2023-09-30T00:18:01;15.93;79.82
68556;HTU21D;55544;51.032;5.866;2023-09-30T00:20:28;15.93;79.30
68556;HTU21D;55544;51.032;5.866;2023-09-30T00:22:54;15.95;78.91
68556;HTU21D;55544;51.032;5.866;2023-09-30T00:25:20;15.93;78.56
68556;HTU21D;55544;51.032;5.866;2023-09-30T00:27:47;15.95;78.41
68556;HTU21D;55544;51.032;5.866;2023-09-30T00:30:13;15.90;78.69
68556;HTU21D;55544;51.032;5.866;2023-09-30T00:32:38;15.90;78.81
68556;HTU21D;55544;51.032;5.866;2023-09-30T00:35:07;15.88;78.75
68556;HTU21D;55544;51.032;5.866;2023-09-30T00:37:38;15.74;79.34
68556;HTU21D;55544;51.032;5.866;2023-09-30T00:40:05;15.71;79.46
68556;HTU21D;55544;51.032;5.866;2023-09-30T00:42:32;15.66;79.88
68556;HTU21D;55544;51.032;5.866;2023-09-30T00:44:58;15.63;79.98
68556;HTU21D;55544;51.032;5.866;2023-09-30T00:47:24;15.61;79.95
68556;HTU21D;55544;51.032;5.866;2023-09-30T00:49:52;15.63;80.33
68556;HTU21D;55544;51.032;5.866;2023-09-30T00:52:19;15.61;80.27
68556;HTU21D;55544;51.032;5.866;2023-09-30T00:54:47;15.61;80.37
68556;HTU21D;55544;51.032;5.866;2023-09-30T00:57:13;15.59;80.15
68556;HTU21D;55544;51.032;5.866;2023-09-30T00:59:40;15.49;80.30
68556;HTU21D;55544;51.032;5.866;2023-09-30T01:02:06;15.51;80.03
68556;HTU21D;55544;51.032;5.866;2023-09-30T01:04:32;15.55;79.76
68556;HTU21D;55544;51.032;5.866;2023-09-30T01:06:58;15.48;80.07
68556;HTU21D;55544;51.032;5.866;2023-09-30T01:09:26;15.46;80.50
68556;HTU21D;55544;51.032;5.866;2023-09-30T01:11:53;15.47;80.66
68556;HTU21D;55544;51.032;5.866;2023-09-30T01:14:30;15.48;80.46
68556;HTU21D;55544;51.032;5.866;2023-09-30T01:16:56;15.52;80.33
68556;HTU21D;55544;51.032;5.866;2023-09-30T01:19:24;15.51;80.22
68556;HTU21D;55544;51.032;5.866;2023-09-30T01:21:54;15.47;80.35
68556;HTU21D;55544;51.032;5.866;2023-09-30T01:24:22;15.47;80.48
68556;HTU21D;55544;51.032;5.866;2023-09-30T01:26:48;15.48;80.59
68556;HTU21D;55544;51.032;5.866;2023-09-30T01:29:14;15.49;80.45
68556;HTU21D;55544;51.032;5.866;2023-09-30T01:31:39;15.51;80.08
68556;HTU21D;55544;51.032;5.866;2023-09-30T01:34:05;15.53;80.11
68556;HTU21D;55544;51.032;5.866;2023-09-30T01:36:31;15.54;80.13
68556;HTU21D;55544;51.032;5.866;2023-09-30T01:38:57;15.52;80.23
68556;HTU21D;55544;51.032;5.866;2023-09-30T01:41:23;15.49;80.04
68556;HTU21D;55544;51.032;5.866;2023-09-30T01:43:49;15.47;80.06
68556;HTU21D;55544;51.032;5.866;2023-09-30T01:46:15;15.46;79.72
68556;HTU21D;55544;51.032;5.866;2023-09-30T01:48:41;15.47;79.11
68556;HTU21D;55544;51.032;5.866;2023-09-30T01:51:07;15.49;79.25
68556;HTU21D;55544;51.032;5.866;2023-09-30T01:53:33;15.53;79.53
68556;HTU21D;55544;51.032;5.866;2023-09-30T01:55:59;15.53;79.59
68556;HTU21D;55544;51.032;5.866;2023-09-30T01:58:25;15.52;79.54
68556;HTU21D;55544;51.032;5.866;2023-09-30T02:00:54;15.49;79.71
68556;HTU21D;55544;51.032;5.866;2023-09-30T02:03:19;15.46;79.68
68556;HTU21D;55544;51.032;5.866;2023-09-30T02:05:45;15.43;79.82
68556;HTU21D;55544;51.032;5.866;2023-09-30T02:08:11;15.40;79.68
68556;HTU21D;55544;51.032;5.866;2023-09-30T02:10:39;15.37;79.49
68556;HTU21D;55544;51.032;5.866;2023-09-30T02:13:05;15.28;79.64
68556;HTU21D;55544;51.032;5.866;2023-09-30T02:15:31;15.23;79.31
68556;HTU21D;55544;51.032;5.866;2023-09-30T02:17:57;15.19;79.11
68556;HTU21D;55544;51.032;5.866;2023-09-30T02:20:23;15.08;79.30
68556;HTU21D;55544;51.032;5.866;2023-09-30T02:22:52;15.07;79.04
68556;HTU21D;55544;51.032;5.866;2023-09-30T02:25:18;15.07;79.11
68556;HTU21D;55544;51.032;5.866;2023-09-30T02:27:44;15.06;79.03
68556;HTU21D;55544;51.032;5.866;2023-09-30T02:30:11;15.04;78.93
68556;HTU21D;55544;51.032;5.866;2023-09-30T02:32:39;14.98;79.87
68556;HTU21D;55544;51.032;5.866;2023-09-30T02:35:06;14.94;80.34
68556;HTU21D;55544;51.032;5.866;2023-09-30T02:37:33;14.91;79.82
68556;HTU21D;55544;51.032;5.866;2023-09-30T02:40:06;14.92;79.90
68556;HTU21D;55544;51.032;5.866;2023-09-30T02:42:38;14.88;80.07
68556;HTU21D;55544;51.032;5.866;2023-09-30T02:45:05;14.86;80.54
68556;HTU21D;55544;51.032;5.866;2023-09-30T02:47:32;14.88;80.74
68556;HTU21D;55544;51.032;5.866;2023-09-30T02:49:59;14.83;80.62
68556;HTU21D;55544;51.032;5.866;2023-09-30T02:52:25;14.80;80.43
68556;HTU21D;55544;51.032;5.866;2023-09-30T02:54:51;14.79;80.63
68556;HTU21D;55544;51.032;5.866;2023-09-30T02:57:17;14.72;80.52
68556;HTU21D;55544;51.032;5.866;2023-09-30T02:59:43;14.75;80.59
68556;HTU21D;55544;51.032;5.866;2023-09-30T03:02:10;14.75;80.35
68556;HTU21D;55544;51.032;5.866;2023-09-30T03:04:37;14.74;80.12
68556;HTU21D;55544;51.032;5.866;2023-09-30T03:07:03;14.78;79.47
68556;HTU21D;55544;51.032;5.866;2023-09-30T03:09:28;14.77;79.20
68556;HTU21D;55544;51.032;5.866;2023-09-30T03:11:54;14.70;79.13
68556;HTU21D;55544;51.032;5.866;2023-09-30T03:14:25;14.62;79.29
68556;HTU21D;55544;51.032;5.866;2023-09-30T03:16:51;14.58;79.48
68556;HTU21D;55544;51.032;5.866;2023-09-30T03:19:17;14.57;78.83
68556;HTU21D;55544;51.032;5.866;2023-09-30T03:21:43;14.54;78.24
68556;HTU21D;55544;51.032;5.866;2023-09-30T03:24:09;14.53;78.32
68556;HTU21D;55544;51.032;5.866;2023-09-30T03:26:35;14.48;78.74
68556;HTU21D;55544;51.032;5.866;2023-09-30T03:29:01;14.43;79.78
68556;HTU21D;55544;51.032;5.866;2023-09-30T03:31:29;14.43;79.83
68556;HTU21D;55544;51.032;5.866;2023-09-30T03:33:55;14.45;80.05
68556;HTU21D;55544;51.032;5.866;2023-09-30T03:36:21;14.45;79.69
68556;HTU21D;55544;51.032;5.866;2023-09-30T03:38:50;14.45;79.26
68556;HTU21D;55544;51.032;5.866;2023-09-30T03:41:21;14.41;79.42
68556;HTU21D;55544;51.032;5.866;2023-09-30T03:43:46;14.40;79.41
68556;HTU21D;55544;51.032;5.866;2023-09-30T03:46:15;14.41;79.01
68556;HTU21D;55544;51.032;5.866;2023-09-30T03:48:41;14.40;79.16
68556;HTU21D;55544;51.032;5.866;2023-09-30T03:51:14;14.43;79.14
68556;HTU21D;55544;51.032;5.866;2023-09-30T03:56:06;14.42;79.16
68556;HTU21D;55544;51.032;5.866;2023-09-30T03:58:32;14.41;79.14
68556;HTU21D;55544;51.032;5.866;2023-09-30T04:00:59;14.44;78.69
68556;HTU21D;55544;51.032;5.866;2023-09-30T04:03:26;14.43;78.98
68556;HTU21D;55544;51.032;5.866;2023-09-30T04:05:55;14.44;78.75
68556;HTU21D;55544;51.032;5.866;2023-09-30T04:08:20;14.45;78.84
68556;HTU21D;55544;51.032;5.866;2023-09-30T04:10:48;14.47;78.66
68556;HTU21D;55544;51.032;5.866;2023-09-30T04:13:14;14.45;78.69
68556;HTU21D;55544;51.032;5.866;2023-09-30T04:15:40;14.47;78.74
68556;HTU21D;55544;51.032;5.866;2023-09-30T04:18:06;14.45;78.63
68556;HTU21D;55544;51.032;5.866;2023-09-30T04:20:31;14.47;78.55
68556;HTU21D;55544;51.032;5.866;2023-09-30T04:22:57;14.45;78.14
68556;HTU21D;55544;51.032;5.866;2023-09-30T04:25:24;14.45;77.57
68556;HTU21D;55544;51.032;5.866;2023-09-30T04:27:53;14.39;78.18
68556;HTU21D;55544;51.032;5.866;2023-09-30T04:30:19;14.34;78.84
68556;HTU21D;55544;51.032;5.866;2023-09-30T04:32:45;14.30;78.76
68556;HTU21D;55544;51.032;5.866;2023-09-30T04:35:11;14.27;79.09
68556;HTU21D;55544;51.032;5.866;2023-09-30T04:37:37;14.26;79.12
68556;HTU21D;55544;51.032;5.866;2023-09-30T04:40:05;14.24;78.95
68556;HTU21D;55544;51.032;5.866;2023-09-30T04:42:43;14.27;78.88
68556;HTU21D;55544;51.032;5.866;2023-09-30T04:45:13;14.29;78.93
68556;HTU21D;55544;51.032;5.866;2023-09-30T04:47:42;14.27;79.14
68556;HTU21D;55544;51.032;5.866;2023-09-30T04:50:10;14.28;79.07
68556;HTU21D;55544;51.032;5.866;2023-09-30T04:52:37;14.28;78.98
68556;HTU21D;55544;51.032;5.866;2023-09-30T04:55:04;14.29;78.85
68556;HTU21D;55544;51.032;5.866;2023-09-30T04:57:30;14.26;78.38
68556;HTU21D;55544;51.032;5.866;2023-09-30T04:59:57;14.27;78.34
68556;HTU21D;55544;51.032;5.866;2023-09-30T05:02:24;14.22;78.60
68556;HTU21D;55544;51.032;5.866;2023-09-30T05:04:50;14.22;78.95
68556;HTU21D;55544;51.032;5.866;2023-09-30T05:07:16;14.17;79.11
68556;HTU21D;55544;51.032;5.866;2023-09-30T05:09:41;14.17;79.03
68556;HTU21D;55544;51.032;5.866;2023-09-30T05:12:08;14.12;79.13
68556;HTU21D;55544;51.032;5.866;2023-09-30T05:14:35;14.10;78.95
68556;HTU21D;55544;51.032;5.866;2023-09-30T05:17:01;14.11;79.04
68556;HTU21D;55544;51.032;5.866;2023-09-30T05:19:26;14.13;79.17
68556;HTU21D;55544;51.032;5.866;2023-09-30T05:21:52;14.11;79.43
68556;HTU21D;55544;51.032;5.866;2023-09-30T05:24:18;14.09;78.93
68556;HTU21D;55544;51.032;5.866;2023-09-30T05:26:46;14.04;78.88
68556;HTU21D;55544;51.032;5.866;2023-09-30T05:29:12;14.00;78.54
68556;HTU21D;55544;51.032;5.866;2023-09-30T05:31:38;13.91;78.85
68556;HTU21D;55544;51.032;5.866;2023-09-30T05:34:04;13.85;79.47
68556;HTU21D;55544;51.032;5.866;2023-09-30T05:36:30;13.82;80.19
68556;HTU21D;55544;51.032;5.866;2023-09-30T05:38:56;13.80;80.80
68556;HTU21D;55544;51.032;5.866;2023-09-30T05:41:21;13.85;81.15
68556;HTU21D;55544;51.032;5.866;2023-09-30T05:43:47;13.89;81.45
68556;HTU21D;55544;51.032;5.866;2023-09-30T05:46:14;13.92;80.95
68556;HTU21D;55544;51.032;5.866;2023-09-30T05:48:40;13.91;80.82
68556;HTU21D;55544;51.032;5.866;2023-09-30T05:51:06;13.95;80.83
68556;HTU21D;55544;51.032;5.866;2023-09-30T05:53:32;13.97;81.35
68556;HTU21D;55544;51.032;5.866;2023-09-30T05:56:01;13.98;81.19
68556;HTU21D;55544;51.032;5.866;2023-09-30T05:58:27;13.96;80.89
68556;HTU21D;55544;51.032;5.866;2023-09-30T06:00:52;13.99;81.14
68556;HTU21D;55544;51.032;5.866;2023-09-30T06:03:19;13.99;80.90
68556;HTU21D;55544;51.032;5.866;2023-09-30T06:05:47;13.98;81.41
68556;HTU21D;55544;51.032;5.866;2023-09-30T06:08:14;13.98;81.72
68556;HTU21D;55544;51.032;5.866;2023-09-30T06:10:41;13.99;81.69
68556;HTU21D;55544;51.032;5.866;2023-09-30T06:13:12;13.99;81.81
68556;HTU21D;55544;51.032;5.866;2023-09-30T06:15:43;14.00;81.97
68556;HTU21D;55544;51.032;5.866;2023-09-30T06:18:09;14.06;82.04
68556;HTU21D;55544;51.032;5.866;2023-09-30T06:20:37;14.08;81.33
68556;HTU21D;55544;51.032;5.866;2023-09-30T06:23:03;14.14;80.97
68556;HTU21D;55544;51.032;5.866;2023-09-30T06:25:29;14.14;80.93
68556;HTU21D;55544;51.032;5.866;2023-09-30T06:27:56;14.17;81.13
68556;HTU21D;55544;51.032;5.866;2023-09-30T06:30:23;14.20;81.56
68556;HTU21D;55544;51.032;5.866;2023-09-30T06:32:56;14.24;81.65
68556;HTU21D;55544;51.032;5.866;2023-09-30T06:35:21;14.26;81.79
68556;HTU21D;55544;51.032;5.866;2023-09-30T06:37:48;14.29;81.70
68556;HTU21D;55544;51.032;5.866;2023-09-30T06:40:14;14.38;81.84
68556;HTU21D;55544;51.032;5.866;2023-09-30T06:42:40;14.40;81.98
68556;HTU21D;55544;51.032;5.866;2023-09-30T06:45:07;14.43;82.48
68556;HTU21D;55544;51.032;5.866;2023-09-30T06:47:33;14.50;82.46
68556;HTU21D;55544;51.032;5.866;2023-09-30T06:50:10;14.47;83.43
68556;HTU21D;55544;51.032;5.866;2023-09-30T06:52:40;14.50;83.61
68556;HTU21D;55544;51.032;5.866;2023-09-30T06:55:07;14.56;83.82
68556;HTU21D;55544;51.032;5.866;2023-09-30T06:57:37;14.57;84.36
68556;HTU21D;55544;51.032;5.866;2023-09-30T07:00:07;14.64;84.90
68556;HTU21D;55544;51.032;5.866;2023-09-30T07:02:35;14.69;85.09
68556;HTU21D;55544;51.032;5.866;2023-09-30T07:05:07;14.72;85.55
68556;HTU21D;55544;51.032;5.866;2023-09-30T07:07:33;14.77;85.90
68556;HTU21D;55544;51.032;5.866;2023-09-30T07:09:59;14.83;86.09
68556;HTU21D;55544;51.032;5.866;2023-09-30T07:12:24;14.92;86.48
68556;HTU21D;55544;51.032;5.866;2023-09-30T07:14:50;15.04;86.16
68556;HTU21D;55544;51.032;5.866;2023-09-30T07:17:16;15.18;86.22
68556;HTU21D;55544;51.032;5.866;2023-09-30T07:19:41;15.28;85.90
68556;HTU21D;55544;51.032;5.866;2023-09-30T07:22:07;15.46;85.46
68556;HTU21D;55544;51.032;5.866;2023-09-30T07:24:33;15.54;85.29
68556;HTU21D;55544;51.032;5.866;2023-09-30T07:26:59;15.61;84.96
68556;HTU21D;55544;51.032;5.866;2023-09-30T07:29:24;15.72;84.94
68556;HTU21D;55544;51.032;5.866;2023-09-30T07:31:50;15.80;84.93
68556;HTU21D;55544;51.032;5.866;2023-09-30T07:34:16;15.87;84.51
68556;HTU21D;55544;51.032;5.866;2023-09-30T07:36:42;15.91;84.20
68556;HTU21D;55544;51.032;5.866;2023-09-30T07:39:08;15.97;83.93
68556;HTU21D;55544;51.032;5.866;2023-09-30T07:41:37;15.88;83.99
68556;HTU21D;55544;51.032;5.866;2023-09-30T07:44:03;15.81;84.17
68556;HTU21D;55544;51.032;5.866;2023-09-30T07:46:29;15.71;84.39
68556;HTU21D;55544;51.032;5.866;2023-09-30T07:48:54;15.65;85.09
68556;HTU21D;55544;51.032;5.866;2023-09-30T07:51:21;15.65;85.22
68556;HTU21D;55544;51.032;5.866;2023-09-30T07:53:46;15.65;85.64
68556;HTU21D;55544;51.032;5.866;2023-09-30T07:56:13;15.70;85.79
68556;HTU21D;55544;51.032;5.866;2023-09-30T07:58:39;15.67;85.58
68556;HTU21D;55544;51.032;5.866;2023-09-30T08:01:05;15.58;85.47
68556;HTU21D;55544;51.032;5.866;2023-09-30T08:03:30;15.54;86.00
68556;HTU21D;55544;51.032;5.866;2023-09-30T08:05:56;15.52;86.40
68556;HTU21D;55544;51.032;5.866;2023-09-30T08:08:23;15.55;86.83
68556;HTU21D;55544;51.032;5.866;2023-09-30T08:10:50;15.60;87.22
68556;HTU21D;55544;51.032;5.866;2023-09-30T08:13:15;15.65;86.99
68556;HTU21D;55544;51.032;5.866;2023-09-30T08:15:43;15.70;87.34
68556;HTU21D;55544;51.032;5.866;2023-09-30T08:18:08;15.81;87.38
68556;HTU21D;55544;51.032;5.866;2023-09-30T08:20:34;15.87;86.74
68556;HTU21D;55544;51.032;5.866;2023-09-30T08:23:00;15.92;86.47
68556;HTU21D;55544;51.032;5.866;2023-09-30T08:25:26;16.04;86.62
68556;HTU21D;55544;51.032;5.866;2023-09-30T08:27:52;16.14;86.53
68556;HTU21D;55544;51.032;5.866;2023-09-30T08:30:19;16.22;86.50
68556;HTU21D;55544;51.032;5.866;2023-09-30T08:32:45;16.29;85.50
68556;HTU21D;55544;51.032;5.866;2023-09-30T08:35:12;16.27;85.00
68556;HTU21D;55544;51.032;5.866;2023-09-30T08:37:40;16.35;85.51
68556;HTU21D;55544;51.032;5.866;2023-09-30T08:40:06;16.32;85.13
68556;HTU21D;55544;51.032;5.866;2023-09-30T08:42:32;16.40;85.26
68556;HTU21D;55544;51.032;5.866;2023-09-30T08:45:00;16.48;84.97
68556;HTU21D;55544;51.032;5.866;2023-09-30T08:47:27;16.51;84.37
68556;HTU21D;55544;51.032;5.866;2023-09-30T08:49:54;16.66;85.44
68556;HTU21D;55544;51.032;5.866;2023-09-30T08:52:23;16.77;84.86
68556;HTU21D;55544;51.032;5.866;2023-09-30T08:54:50;16.88;84.66
68556;HTU21D;55544;51.032;5.866;2023-09-30T08:57:18;16.93;83.93
68556;HTU21D;55544;51.032;5.866;2023-09-30T08:59:46;16.94;83.82
68556;HTU21D;55544;51.032;5.866;2023-09-30T09:02:14;17.03;83.72
68556;HTU21D;55544;51.032;5.866;2023-09-30T09:04:40;0.00;82.97
68556;HTU21D;55544;51.032;5.866;2023-09-30T09:07:06;17.16;83.45
68556;HTU21D;55544;51.032;5.866;2023-09-30T09:09:32;17.36;83.26
68556;HTU21D;55544;51.032;5.866;2023-09-30T09:11:58;17.61;82.40
68556;HTU21D;55544;51.032;5.866;2023-09-30T09:14:44;17.64;80.77
68556;HTU21D;55544;51.032;5.866;2023-09-30T09:17:11;17.70;81.18
68556;HTU21D;55544;51.032;5.866;2023-09-30T09:19:36;17.82;80.13
68556;HTU21D;55544;51.032;5.866;2023-09-30T09:22:03;17.87;79.88
68556;HTU21D;55544;51.032;5.866;2023-09-30T09:24:34;18.09;80.36
68556;HTU21D;55544;51.032;5.866;2023-09-30T09:27:18;18.22;78.85
68556;HTU21D;55544;51.032;5.866;2023-09-30T09:29:45;18.33;78.14
68556;HTU21D;55544;51.032;5.866;2023-09-30T09:32:12;18.50;77.77
68556;HTU21D;55544;51.032;5.866;2023-09-30T09:34:39;18.58;77.25
68556;HTU21D;55544;51.032;5.866;2023-09-30T09:37:21;18.67;76.63
68556;HTU21D;55544;51.032;5.866;2023-09-30T09:42:31;18.79;76.02
68556;HTU21D;55544;51.032;5.866;2023-09-30T09:44:59;18.84;75.44
68556;HTU21D;55544;51.032;5.866;2023-09-30T09:47:25;18.85;74.86
68556;HTU21D;55544;51.032;5.866;2023-09-30T09:49:52;18.93;75.40
68556;HTU21D;55544;51.032;5.866;2023-09-30T09:52:19;19.13;75.61
68556;HTU21D;55544;51.032;5.866;2023-09-30T09:54:46;19.42;74.99
68556;HTU21D;55544;51.032;5.866;2023-09-30T09:57:12;19.60;73.34
68556;HTU21D;55544;51.032;5.866;2023-09-30T09:59:42;19.73;72.72
68556;HTU21D;55544;51.032;5.866;2023-09-30T10:02:12;19.84;72.46
68556;HTU21D;55544;51.032;5.866;2023-09-30T10:04:46;19.99;71.31
68556;HTU21D;55544;51.032;5.866;2023-09-30T10:07:27;19.96;70.94
68556;HTU21D;55544;51.032;5.866;2023-09-30T10:09:56;20.03;71.58
68556;HTU21D;55544;51.032;5.866;2023-09-30T10:12:25;20.24;70.16
68556;HTU21D;55544;51.032;5.866;2023-09-30T10:14:52;20.37;69.45
68556;HTU21D;55544;51.032;5.866;2023-09-30T10:17:18;20.40;68.87
68556;HTU21D;55544;51.032;5.866;2023-09-30T10:20:03;20.34;68.37
68556;HTU21D;55544;51.032;5.866;2023-09-30T10:22:30;20.42;68.84
68556;HTU21D;55544;51.032;5.866;2023-09-30T10:24:58;20.36;67.94
68556;HTU21D;55544;51.032;5.866;2023-09-30T10:27:31;20.37;67.52
68556;HTU21D;55544;51.032;5.866;2023-09-30T10:37:44;20.78;66.53
68556;HTU21D;55544;51.032;5.866;2023-09-30T10:40:26;20.94;66.20
68556;HTU21D;55544;51.032;5.866;2023-09-30T10:42:52;20.94;65.85
68556;HTU21D;55544;51.032;5.866;2023-09-30T10:48:40;21.15;64.21
68556;HTU21D;55544;51.032;5.866;2023-09-30T10:51:19;21.19;63.88
68556;HTU21D;55544;51.032;5.866;2023-09-30T10:53:55;21.34;63.63
68556;HTU21D;55544;51.032;5.866;2023-09-30T10:56:33;21.46;62.77
68556;HTU21D;55544;51.032;5.866;2023-09-30T10:58:59;21.57;62.24
68556;HTU21D;55544;51.032;5.866;2023-09-30T11:01:32;21.73;62.81
68556;HTU21D;55544;51.032;5.866;2023-09-30T11:04:01;21.73;61.58
68556;HTU21D;55544;51.032;5.866;2023-09-30T11:06:29;21.83;62.10
68556;HTU21D;55544;51.032;5.866;2023-09-30T11:08:58;21.96;62.59
68556;HTU21D;55544;51.032;5.866;2023-09-30T11:11:41;22.10;61.26
68556;HTU21D;55544;51.032;5.866;2023-09-30T11:14:32;22.19;59.96
68556;HTU21D;55544;51.032;5.866;2023-09-30T11:17:00;22.27;59.59
68556;HTU21D;55544;51.032;5.866;2023-09-30T11:19:41;22.40;59.45
68556;HTU21D;55544;51.032;5.866;2023-09-30T11:22:11;22.50;56.63
68556;HTU21D;55544;51.032;5.866;2023-09-30T11:24:38;22.32;55.78
68556;HTU21D;55544;51.032;5.866;2023-09-30T11:27:03;22.09;56.79
68556;HTU21D;55544;51.032;5.866;2023-09-30T11:29:30;21.93;58.25
68556;HTU21D;55544;51.032;5.866;2023-09-30T11:31:56;21.93;58.68
68556;HTU21D;55544;51.032;5.866;2023-09-30T11:34:33;21.98;57.71
68556;HTU21D;55544;51.032;5.866;2023-09-30T11:37:00;22.20;57.39
68556;HTU21D;55544;51.032;5.866;2023-09-30T11:39:30;22.37;56.03
68556;HTU21D;55544;51.032;5.866;2023-09-30T11:41:57;22.47;55.45
68556;HTU21D;55544;51.032;5.866;2023-09-30T11:44:26;22.44;54.89
68556;HTU21D;55544;51.032;5.866;2023-09-30T11:46:55;22.32;55.20
68556;HTU21D;55544;51.032;5.866;2023-09-30T11:49:29;22.37;55.51
68556;HTU21D;55544;51.032;5.866;2023-09-30T11:51:58;22.50;53.90
68556;HTU21D;55544;51.032;5.866;2023-09-30T11:54:31;22.41;54.30
68556;HTU21D;55544;51.032;5.866;2023-09-30T11:56:58;22.39;54.12
68556;HTU21D;55544;51.032;5.866;2023-09-30T11:59:24;22.34;54.46
68556;HTU21D;55544;51.032;5.866;2023-09-30T12:01:50;22.18;54.42
68556;HTU21D;55544;51.032;5.866;2023-09-30T12:04:17;22.05;54.81
68556;HTU21D;55544;51.032;5.866;2023-09-30T12:06:48;22.08;56.03
68556;HTU21D;55544;51.032;5.866;2023-09-30T12:09:15;22.32;55.68
68556;HTU21D;55544;51.032;5.866;2023-09-30T12:11:42;22.40;54.21
68556;HTU21D;55544;51.032;5.866;2023-09-30T12:14:12;22.40;53.84
68556;HTU21D;55544;51.032;5.866;2023-09-30T12:16:39;22.33;54.01
68556;HTU21D;55544;51.032;5.866;2023-09-30T12:19:07;22.34;54.62
68556;HTU21D;55544;51.032;5.866;2023-09-30T12:21:32;22.20;54.98
68556;HTU21D;55544;51.032;5.866;2023-09-30T12:24:00;22.09;56.26
68556;HTU21D;55544;51.032;5.866;2023-09-30T12:26:26;22.03;55.88
68556;HTU21D;55544;51.032;5.866;2023-09-30T12:28:51;21.96;55.73
68556;HTU21D;55544;51.032;5.866;2023-09-30T12:31:18;22.08;55.67
68556;HTU21D;55544;51.032;5.866;2023-09-30T12:33:45;22.13;55.03
68556;HTU21D;55544;51.032;5.866;2023-09-30T12:36:16;22.02;55.06
68556;HTU21D;55544;51.032;5.866;2023-09-30T12:38:42;21.96;55.33
68556;HTU21D;55544;51.032;5.866;2023-09-30T12:41:08;21.91;56.24
68556;HTU21D;55544;51.032;5.866;2023-09-30T12:43:34;21.92;56.17
68556;HTU21D;55544;51.032;5.866;2023-09-30T12:45:59;22.03;55.89
68556;HTU21D;55544;51.032;5.866;2023-09-30T12:48:25;22.36;55.35
68556;HTU21D;55544;51.032;5.866;2023-09-30T12:50:51;22.63;54.33
68556;HTU21D;55544;51.032;5.866;2023-09-30T12:53:16;22.78;53.42
68556;HTU21D;55544;51.032;5.866;2023-09-30T12:55:42;22.93;53.70
68556;HTU21D;55544;51.032;5.866;2023-09-30T12:58:08;22.93;52.72
68556;HTU21D;55544;51.032;5.866;2023-09-30T13:00:34;22.70;52.46
68556;HTU21D;55544;51.032;5.866;2023-09-30T13:03:02;22.55;53.70
68556;HTU21D;55544;51.032;5.866;2023-09-30T13:05:28;22.47;54.38
68556;HTU21D;55544;51.032;5.866;2023-09-30T13:07:57;22.35;54.13
68556;HTU21D;55544;51.032;5.866;2023-09-30T13:10:23;22.26;54.48
68556;HTU21D;55544;51.032;5.866;2023-09-30T13:12:49;22.29;54.60
68556;HTU21D;55544;51.032;5.866;2023-09-30T13:15:16;22.22;55.19
68556;HTU21D;55544;51.032;5.866;2023-09-30T13:17:42;22.19;55.85
68556;HTU21D;55544;51.032;5.866;2023-09-30T13:20:09;22.20;55.61
68556;HTU21D;55544;51.032;5.866;2023-09-30T13:22:35;22.20;55.10
68556;HTU21D;55544;51.032;5.866;2023-09-30T13:25:05;22.23;55.68
68556;HTU21D;55544;51.032;5.866;2023-09-30T13:27:31;22.23;55.22
68556;HTU21D;55544;51.032;5.866;2023-09-30T13:29:58;22.22;54.94
68556;HTU21D;55544;51.032;5.866;2023-09-30T13:32:24;22.14;55.22
68556;HTU21D;55544;51.032;5.866;2023-09-30T13:34:51;22.12;55.45
68556;HTU21D;55544;51.032;5.866;2023-09-30T13:37:17;22.07;55.74
68556;HTU21D;55544;51.032;5.866;2023-09-30T13:39:43;22.09;56.52
68556;HTU21D;55544;51.032;5.866;2023-09-30T13:42:08;22.19;56.81
68556;HTU21D;55544;51.032;5.866;2023-09-30T13:44:34;22.29;56.12
68556;HTU21D;55544;51.032;5.866;2023-09-30T13:47:02;22.41;56.05
68556;HTU21D;55544;51.032;5.866;2023-09-30T13:49:28;22.56;55.77
68556;HTU21D;55544;51.032;5.866;2023-09-30T13:51:56;22.62;55.41
68556;HTU21D;55544;51.032;5.866;2023-09-30T13:54:21;22.57;55.44
68556;HTU21D;55544;51.032;5.866;2023-09-30T13:56:47;22.50;55.80
68556;HTU21D;55544;51.032;5.866;2023-09-30T13:59:13;22.46;55.90
68556;HTU21D;55544;51.032;5.866;2023-09-30T14:01:39;22.38;55.90
68556;HTU21D;55544;51.032;5.866;2023-09-30T14:04:07;22.39;56.48
68556;HTU21D;55544;51.032;5.866;2023-09-30T14:06:33;22.35;55.98
68556;HTU21D;55544;51.032;5.866;2023-09-30T14:08:59;22.31;56.44
68556;HTU21D;55544;51.032;5.866;2023-09-30T14:11:26;22.28;56.35
68556;HTU21D;55544;51.032;5.866;2023-09-30T14:13:51;22.27;55.72
68556;HTU21D;55544;51.032;5.866;2023-09-30T14:16:17;22.25;54.55
68556;HTU21D;55544;51.032;5.866;2023-09-30T14:18:43;22.28;54.20
68556;HTU21D;55544;51.032;5.866;2023-09-30T14:21:10;22.34;53.68
68556;HTU21D;55544;51.032;5.866;2023-09-30T14:23:36;22.40;53.78
68556;HTU21D;55544;51.032;5.866;2023-09-30T14:26:01;22.40;54.86
68556;HTU21D;55544;51.032;5.866;2023-09-30T14:28:36;22.34;55.16
68556;HTU21D;55544;51.032;5.866;2023-09-30T14:31:03;22.29;56.09
68556;HTU21D;55544;51.032;5.866;2023-09-30T14:33:29;22.21;54.52
68556;HTU21D;55544;51.032;5.866;2023-09-30T14:35:55;22.10;54.33
68556;HTU21D;55544;51.032;5.866;2023-09-30T14:38:22;22.01;54.30
68556;HTU21D;55544;51.032;5.866;2023-09-30T14:40:48;21.94;54.20
68556;HTU21D;55544;51.032;5.866;2023-09-30T14:43:15;21.92;54.33
68556;HTU21D;55544;51.032;5.866;2023-09-30T14:45:41;21.87;53.12
68556;HTU21D;55544;51.032;5.866;2023-09-30T14:48:08;21.78;52.58
68556;HTU21D;55544;51.032;5.866;2023-09-30T14:50:34;21.70;52.77
68556;HTU21D;55544;51.032;5.866;2023-09-30T14:53:02;21.69;53.20
68556;HTU21D;55544;51.032;5.866;2023-09-30T14:55:30;21.72;53.44
68556;HTU21D;55544;51.032;5.866;2023-09-30T14:57:56;21.75;53.07
68556;HTU21D;55544;51.032;5.866;2023-09-30T15:00:22;21.74;54.18
68556;HTU21D;55544;51.032;5.866;2023-09-30T15:02:50;21.78;54.23
68556;HTU21D;55544;51.032;5.866;2023-09-30T15:05:16;21.80;54.01
68556;HTU21D;55544;51.032;5.866;2023-09-30T15:07:42;21.85;54.37
68556;HTU21D;55544;51.032;5.866;2023-09-30T15:10:08;21.90;53.99
68556;HTU21D;55544;51.032;5.866;2023-09-30T15:12:35;21.94;53.88
68556;HTU21D;55544;51.032;5.866;2023-09-30T15:15:01;21.92;53.38
68556;HTU21D;55544;51.032;5.866;2023-09-30T15:17:27;21.95;53.54
68556;HTU21D;55544;51.032;5.866;2023-09-30T15:19:55;21.96;53.23
68556;HTU21D;55544;51.032;5.866;2023-09-30T15:22:21;22.03;53.00
68556;HTU21D;55544;51.032;5.866;2023-09-30T15:24:46;22.11;52.76
68556;HTU21D;55544;51.032;5.866;2023-09-30T15:27:12;22.22;52.81
68556;HTU21D;55544;51.032;5.866;2023-09-30T15:29:38;22.38;52.75
68556;HTU21D;55544;51.032;5.866;2023-09-30T15:32:04;22.54;51.86